Terminal Aerodrome Forecast
Issued by NWS

Home | Current Version | Previous Version | Text Only | Print | Product List | Glossary On
Versions: 1 2 3 4 5 6 7 8 9 10 11 12 13
408
FTUS42 TJSJ 291142
TAFJSJ
TAF
TJSJ 291142Z 2912/3012 06009KT P6SM SCT025 BKN070 OVC090
     FM291400 08014G22KT P6SM SCT026 BKN045 BKN080
      TEMPO 2917/2919 4SM +SHRA BKN020
     FM292300 07010KT P6SM -SHRA SCT026 SCT040 BKN060=

USA.gov is the U.S. government's official web portal to all federal, state and local government web resources and services.